sensor_id;sensor_type;location;lat;lon;timestamp;P1;durP1;ratioP1;P2;durP2;ratioP2
1959;SDS011;980;43.794;11.212;2024-03-25T00:00:21;11.75;;;11.75;;
1959;SDS011;980;43.794;11.212;2024-03-25T00:02:50;14.50;;;11.25;;
1959;SDS011;980;43.794;11.212;2024-03-25T00:05:15;12.25;;;12.25;;
1959;SDS011;980;43.794;11.212;2024-03-25T00:07:47;11.75;;;11.50;;
1959;SDS011;980;43.794;11.212;2024-03-25T00:10:12;12.00;;;9.00;;
1959;SDS011;980;43.794;11.212;2024-03-25T00:12:37;12.00;;;11.00;;
1959;SDS011;980;43.794;11.212;2024-03-25T00:15:03;11.50;;;11.50;;
1959;SDS011;980;43.794;11.212;2024-03-25T00:17:29;10.00;;;9.00;;
1959;SDS011;980;43.794;11.212;2024-03-25T00:19:54;12.50;;;11.00;;
1959;SDS011;980;43.794;11.212;2024-03-25T00:22:21;13.75;;;12.50;;
1959;SDS011;980;43.794;11.212;2024-03-25T00:24:47;10.00;;;8.75;;
1959;SDS011;980;43.794;11.212;2024-03-25T00:27:12;10.75;;;8.50;;
1959;SDS011;980;43.794;11.212;2024-03-25T00:29:38;11.25;;;10.75;;
1959;SDS011;980;43.794;11.212;2024-03-25T00:32:03;9.00;;;9.00;;
1959;SDS011;980;43.794;11.212;2024-03-25T00:34:28;14.00;;;9.50;;
1959;SDS011;980;43.794;11.212;2024-03-25T00:36:54;9.00;;;9.00;;
1959;SDS011;980;43.794;11.212;2024-03-25T00:39:19;11.75;;;10.00;;
1959;SDS011;980;43.794;11.212;2024-03-25T00:41:44;11.25;;;11.25;;
1959;SDS011;980;43.794;11.212;2024-03-25T00:44:09;8.25;;;5.00;;
1959;SDS011;980;43.794;11.212;2024-03-25T00:46:35;11.50;;;8.00;;
1959;SDS011;980;43.794;11.212;2024-03-25T00:49:00;10.00;;;9.00;;
1959;SDS011;980;43.794;11.212;2024-03-25T00:51:26;13.50;;;10.50;;
1959;SDS011;980;43.794;11.212;2024-03-25T00:53:51;14.75;;;12.50;;
1959;SDS011;980;43.794;11.212;2024-03-25T00:56:16;10.00;;;9.50;;
1959;SDS011;980;43.794;11.212;2024-03-25T00:58:43;8.25;;;8.25;;
1959;SDS011;980;43.794;11.212;2024-03-25T01:01:11;8.25;;;8.00;;
1959;SDS011;980;43.794;11.212;2024-03-25T01:03:36;7.50;;;7.50;;
1959;SDS011;980;43.794;11.212;2024-03-25T01:06:02;9.00;;;7.75;;
1959;SDS011;980;43.794;11.212;2024-03-25T01:08:27;9.00;;;7.50;;
1959;SDS011;980;43.794;11.212;2024-03-25T01:10:52;8.25;;;8.00;;
1959;SDS011;980;43.794;11.212;2024-03-25T01:13:17;8.00;;;8.00;;
1959;SDS011;980;43.794;11.212;2024-03-25T01:15:43;27.33;;;23.33;;
1959;SDS011;980;43.794;11.212;2024-03-25T01:18:08;17.33;;;15.00;;
1959;SDS011;980;43.794;11.212;2024-03-25T01:20:33;11.50;;;10.00;;
1959;SDS011;980;43.794;11.212;2024-03-25T01:22:59;11.00;;;9.00;;
1959;SDS011;980;43.794;11.212;2024-03-25T01:25:24;13.25;;;7.50;;
1959;SDS011;980;43.794;11.212;2024-03-25T01:27:50;8.75;;;8.75;;
1959;SDS011;980;43.794;11.212;2024-03-25T01:30:16;7.50;;;4.50;;
1959;SDS011;980;43.794;11.212;2024-03-25T01:32:43;6.25;;;4.75;;
1959;SDS011;980;43.794;11.212;2024-03-25T01:35:09;7.50;;;7.50;;
1959;SDS011;980;43.794;11.212;2024-03-25T01:37:34;7.00;;;2.00;;
1959;SDS011;980;43.794;11.212;2024-03-25T01:40:00;6.50;;;6.00;;
1959;SDS011;980;43.794;11.212;2024-03-25T01:42:25;8.00;;;7.00;;
1959;SDS011;980;43.794;11.212;2024-03-25T01:44:52;8.25;;;7.00;;
1959;SDS011;980;43.794;11.212;2024-03-25T01:47:17;9.00;;;6.33;;
1959;SDS011;980;43.794;11.212;2024-03-25T01:49:42;7.00;;;7.00;;
1959;SDS011;980;43.794;11.212;2024-03-25T01:52:07;9.75;;;7.00;;
1959;SDS011;980;43.794;11.212;2024-03-25T01:54:33;9.50;;;8.00;;
1959;SDS011;980;43.794;11.212;2024-03-25T01:56:58;5.00;;;5.00;;
1959;SDS011;980;43.794;11.212;2024-03-25T01:59:23;8.00;;;7.00;;
1959;SDS011;980;43.794;11.212;2024-03-25T02:01:50;7.00;;;7.00;;
1959;SDS011;980;43.794;11.212;2024-03-25T02:04:15;8.00;;;7.75;;
1959;SDS011;980;43.794;11.212;2024-03-25T02:06:41;9.50;;;5.00;;
1959;SDS011;980;43.794;11.212;2024-03-25T02:09:06;7.00;;;7.00;;
1959;SDS011;980;43.794;11.212;2024-03-25T02:11:32;5.00;;;5.00;;
1959;SDS011;980;43.794;11.212;2024-03-25T02:13:58;7.00;;;5.00;;
1959;SDS011;980;43.794;11.212;2024-03-25T02:16:23;7.00;;;5.00;;
1959;SDS011;980;43.794;11.212;2024-03-25T02:18:50;7.00;;;5.67;;
1959;SDS011;980;43.794;11.212;2024-03-25T02:21:15;6.00;;;4.75;;
1959;SDS011;980;43.794;11.212;2024-03-25T02:23:41;4.25;;;4.25;;
1959;SDS011;980;43.794;11.212;2024-03-25T02:26:07;9.50;;;7.50;;
1959;SDS011;980;43.794;11.212;2024-03-25T02:28:32;6.00;;;4.00;;
1959;SDS011;980;43.794;11.212;2024-03-25T02:30:58;2.00;;;1.00;;
1959;SDS011;980;43.794;11.212;2024-03-25T02:33:23;7.00;;;4.25;;
1959;SDS011;980;43.794;11.212;2024-03-25T02:35:48;10.00;;;5.67;;
1959;SDS011;980;43.794;11.212;2024-03-25T02:38:13;7.00;;;4.00;;
1959;SDS011;980;43.794;11.212;2024-03-25T02:40:42;5.00;;;4.00;;
1959;SDS011;980;43.794;11.212;2024-03-25T02:43:10;7.00;;;4.00;;
1959;SDS011;980;43.794;11.212;2024-03-25T02:45:35;5.67;;;5.67;;
1959;SDS011;980;43.794;11.212;2024-03-25T02:48:00;5.00;;;5.00;;
1959;SDS011;980;43.794;11.212;2024-03-25T02:50:25;5.67;;;5.67;;
1959;SDS011;980;43.794;11.212;2024-03-25T02:52:51;3.33;;;3.33;;
1959;SDS011;980;43.794;11.212;2024-03-25T02:55:16;3.33;;;3.33;;
1959;SDS011;980;43.794;11.212;2024-03-25T02:57:41;4.00;;;4.00;;
1959;SDS011;980;43.794;11.212;2024-03-25T03:00:06;4.00;;;4.00;;
1959;SDS011;980;43.794;11.212;2024-03-25T03:02:34;4.00;;;4.00;;
1959;SDS011;980;43.794;11.212;2024-03-25T03:04:59;3.33;;;2.00;;
1959;SDS011;980;43.794;11.212;2024-03-25T03:07:24;4.00;;;4.00;;
1959;SDS011;980;43.794;11.212;2024-03-25T03:09:49;2.00;;;2.00;;
1959;SDS011;980;43.794;11.212;2024-03-25T03:12:15;7.00;;;4.00;;
1959;SDS011;980;43.794;11.212;2024-03-25T03:14:40;6.00;;;4.00;;
1959;SDS011;980;43.794;11.212;2024-03-25T03:17:08;7.00;;;5.00;;
1959;SDS011;980;43.794;11.212;2024-03-25T03:19:34;5.67;;;4.00;;
1959;SDS011;980;43.794;11.212;2024-03-25T03:21:59;3.33;;;3.33;;
1959;SDS011;980;43.794;11.212;2024-03-25T03:24:24;4.00;;;4.00;;
1959;SDS011;980;43.794;11.212;2024-03-25T03:26:49;4.33;;;2.00;;
1959;SDS011;980;43.794;11.212;2024-03-25T03:29:15;4.00;;;2.00;;
1959;SDS011;980;43.794;11.212;2024-03-25T03:31:40;3.33;;;3.33;;
1959;SDS011;980;43.794;11.212;2024-03-25T03:34:06;4.00;;;4.00;;
1959;SDS011;980;43.794;11.212;2024-03-25T03:36:31;6.67;;;4.00;;
1959;SDS011;980;43.794;11.212;2024-03-25T03:38:56;4.00;;;4.00;;
1959;SDS011;980;43.794;11.212;2024-03-25T03:41:21;7.00;;;5.00;;
1959;SDS011;980;43.794;11.212;2024-03-25T03:43:47;5.00;;;5.00;;
1959;SDS011;980;43.794;11.212;2024-03-25T03:46:12;4.00;;;4.00;;
1959;SDS011;980;43.794;11.212;2024-03-25T03:48:37;2.67;;;2.67;;
1959;SDS011;980;43.794;11.212;2024-03-25T03:51:03;9.33;;;5.00;;
1959;SDS011;980;43.794;11.212;2024-03-25T03:53:29;4.33;;;4.33;;
1959;SDS011;980;43.794;11.212;2024-03-25T03:58:19;5.00;;;4.00;;
1959;SDS011;980;43.794;11.212;2024-03-25T04:00:45;2.00;;;2.00;;
1959;SDS011;980;43.794;11.212;2024-03-25T04:03:10;6.33;;;2.00;;
1959;SDS011;980;43.794;11.212;2024-03-25T04:05:35;5.00;;;4.00;;
1959;SDS011;980;43.794;11.212;2024-03-25T04:08:00;4.67;;;2.00;;
1959;SDS011;980;43.794;11.212;2024-03-25T04:10:26;4.67;;;4.00;;
1959;SDS011;980;43.794;11.212;2024-03-25T04:12:51;7.00;;;4.00;;
1959;SDS011;980;43.794;11.212;2024-03-25T04:15:17;5.00;;;4.00;;
1959;SDS011;980;43.794;11.212;2024-03-25T04:17:43;7.33;;;5.00;;
1959;SDS011;980;43.794;11.212;2024-03-25T04:20:10;8.00;;;5.00;;
1959;SDS011;980;43.794;11.212;2024-03-25T04:22:35;7.00;;;7.00;;
1959;SDS011;980;43.794;11.212;2024-03-25T04:25:01;7.00;;;7.00;;
1959;SDS011;980;43.794;11.212;2024-03-25T04:27:26;12.67;;;9.33;;
1959;SDS011;980;43.794;11.212;2024-03-25T04:29:51;8.00;;;8.00;;
1959;SDS011;980;43.794;11.212;2024-03-25T04:32:17;8.67;;;8.00;;
1959;SDS011;980;43.794;11.212;2024-03-25T04:34:42;8.00;;;8.00;;
1959;SDS011;980;43.794;11.212;2024-03-25T04:37:08;7.33;;;4.00;;
1959;SDS011;980;43.794;11.212;2024-03-25T04:39:34;8.00;;;4.67;;
1959;SDS011;980;43.794;11.212;2024-03-25T04:42:00;4.00;;;4.00;;
1959;SDS011;980;43.794;11.212;2024-03-25T04:44:25;6.33;;;4.33;;
1959;SDS011;980;43.794;11.212;2024-03-25T04:46:50;6.33;;;5.67;;
1959;SDS011;980;43.794;11.212;2024-03-25T04:49:15;7.33;;;4.67;;
1959;SDS011;980;43.794;11.212;2024-03-25T04:51:41;7.00;;;6.00;;
1959;SDS011;980;43.794;11.212;2024-03-25T04:54:06;7.67;;;7.00;;
1959;SDS011;980;43.794;11.212;2024-03-25T04:56:32;10.00;;;6.67;;
1959;SDS011;980;43.794;11.212;2024-03-25T04:58:57;9.00;;;7.00;;
1959;SDS011;980;43.794;11.212;2024-03-25T05:01:26;9.00;;;9.00;;
1959;SDS011;980;43.794;11.212;2024-03-25T05:03:52;10.67;;;9.00;;
1959;SDS011;980;43.794;11.212;2024-03-25T05:06:17;7.00;;;7.00;;
1959;SDS011;980;43.794;11.212;2024-03-25T05:08:42;9.00;;;9.00;;
1959;SDS011;980;43.794;11.212;2024-03-25T05:11:07;7.00;;;7.00;;
1959;SDS011;980;43.794;11.212;2024-03-25T05:13:33;7.67;;;6.00;;
1959;SDS011;980;43.794;11.212;2024-03-25T05:15:58;9.33;;;9.33;;
1959;SDS011;980;43.794;11.212;2024-03-25T05:18:23;15.00;;;11.00;;
1959;SDS011;980;43.794;11.212;2024-03-25T05:20:48;9.00;;;7.00;;
1959;SDS011;980;43.794;11.212;2024-03-25T05:23:14;8.33;;;7.00;;
1959;SDS011;980;43.794;11.212;2024-03-25T05:25:39;14.00;;;8.33;;
1959;SDS011;980;43.794;11.212;2024-03-25T05:28:05;7.00;;;7.00;;
1959;SDS011;980;43.794;11.212;2024-03-25T05:30:31;7.00;;;6.33;;
1959;SDS011;980;43.794;11.212;2024-03-25T05:32:56;6.67;;;5.67;;
1959;SDS011;980;43.794;11.212;2024-03-25T05:35:21;8.00;;;6.00;;
1959;SDS011;980;43.794;11.212;2024-03-25T05:37:46;9.67;;;7.67;;
1959;SDS011;980;43.794;11.212;2024-03-25T05:40:12;9.33;;;7.00;;
1959;SDS011;980;43.794;11.212;2024-03-25T05:42:37;9.00;;;9.00;;
1959;SDS011;980;43.794;11.212;2024-03-25T05:45:03;10.33;;;9.67;;
1959;SDS011;980;43.794;11.212;2024-03-25T05:47:28;13.33;;;10.33;;
1959;SDS011;980;43.794;11.212;2024-03-25T05:49:53;10.67;;;10.00;;
1959;SDS011;980;43.794;11.212;2024-03-25T05:52:18;11.00;;;9.00;;
1959;SDS011;980;43.794;11.212;2024-03-25T05:54:44;9.00;;;9.00;;
1959;SDS011;980;43.794;11.212;2024-03-25T05:57:09;24.67;;;23.67;;
1959;SDS011;980;43.794;11.212;2024-03-25T05:59:34;17.33;;;12.33;;
1959;SDS011;980;43.794;11.212;2024-03-25T06:01:59;10.00;;;8.33;;
1959;SDS011;980;43.794;11.212;2024-03-25T06:04:25;12.33;;;9.00;;
1959;SDS011;980;43.794;11.212;2024-03-25T06:06:50;9.33;;;9.33;;
1959;SDS011;980;43.794;11.212;2024-03-25T06:09:15;10.00;;;9.67;;
1959;SDS011;980;43.794;11.212;2024-03-25T06:11:40;7.67;;;6.00;;
1959;SDS011;980;43.794;11.212;2024-03-25T06:14:06;6.67;;;5.33;;
1959;SDS011;980;43.794;11.212;2024-03-25T06:16:31;10.00;;;10.00;;
1959;SDS011;980;43.794;11.212;2024-03-25T06:18:56;12.33;;;10.67;;
1959;SDS011;980;43.794;11.212;2024-03-25T06:21:21;11.00;;;11.00;;
1959;SDS011;980;43.794;11.212;2024-03-25T06:23:48;6.67;;;6.67;;
1959;SDS011;980;43.794;11.212;2024-03-25T06:26:13;14.00;;;10.33;;
1959;SDS011;980;43.794;11.212;2024-03-25T06:28:38;9.67;;;9.67;;
1959;SDS011;980;43.794;11.212;2024-03-25T06:31:04;9.33;;;6.00;;
1959;SDS011;980;43.794;11.212;2024-03-25T06:33:48;11.67;;;10.00;;
1959;SDS011;980;43.794;11.212;2024-03-25T06:36:32;10.33;;;8.33;;
1959;SDS011;980;43.794;11.212;2024-03-25T06:38:57;13.00;;;11.00;;
1959;SDS011;980;43.794;11.212;2024-03-25T06:41:22;10.00;;;10.00;;
1959;SDS011;980;43.794;11.212;2024-03-25T06:43:47;11.67;;;10.33;;
1959;SDS011;980;43.794;11.212;2024-03-25T06:46:13;10.67;;;10.00;;
1959;SDS011;980;43.794;11.212;2024-03-25T06:48:38;10.67;;;10.67;;
1959;SDS011;980;43.794;11.212;2024-03-25T06:51:03;9.00;;;9.00;;
1959;SDS011;980;43.794;11.212;2024-03-25T06:53:29;10.33;;;10.33;;
1959;SDS011;980;43.794;11.212;2024-03-25T06:55:58;14.67;;;14.00;;
1959;SDS011;980;43.794;11.212;2024-03-25T06:58:24;13.00;;;10.67;;
1959;SDS011;980;43.794;11.212;2024-03-25T07:00:49;11.00;;;9.67;;
1959;SDS011;980;43.794;11.212;2024-03-25T07:03:18;15.00;;;13.00;;
1959;SDS011;980;43.794;11.212;2024-03-25T07:05:46;10.33;;;10.33;;
1959;SDS011;980;43.794;11.212;2024-03-25T07:08:12;11.00;;;11.00;;
1959;SDS011;980;43.794;11.212;2024-03-25T07:10:37;17.00;;;13.33;;
1959;SDS011;980;43.794;11.212;2024-03-25T07:13:02;13.67;;;11.00;;
1959;SDS011;980;43.794;11.212;2024-03-25T07:15:28;15.00;;;12.33;;
1959;SDS011;980;43.794;11.212;2024-03-25T07:17:53;12.33;;;11.00;;
1959;SDS011;980;43.794;11.212;2024-03-25T07:20:18;10.00;;;10.00;;
1959;SDS011;980;43.794;11.212;2024-03-25T07:22:44;14.00;;;11.00;;
1959;SDS011;980;43.794;11.212;2024-03-25T07:25:09;15.33;;;14.33;;
1959;SDS011;980;43.794;11.212;2024-03-25T07:27:35;17.33;;;14.00;;
1959;SDS011;980;43.794;11.212;2024-03-25T07:30:00;11.00;;;11.00;;
1959;SDS011;980;43.794;11.212;2024-03-25T07:32:25;16.67;;;13.33;;
1959;SDS011;980;43.794;11.212;2024-03-25T07:34:50;18.33;;;14.00;;
1959;SDS011;980;43.794;11.212;2024-03-25T07:37:15;15.00;;;15.00;;
1959;SDS011;980;43.794;11.212;2024-03-25T07:39:42;14.33;;;12.00;;
1959;SDS011;980;43.794;11.212;2024-03-25T07:42:07;14.67;;;12.00;;
1959;SDS011;980;43.794;11.212;2024-03-25T07:44:32;14.33;;;14.33;;
1959;SDS011;980;43.794;11.212;2024-03-25T07:46:58;6.33;;;5.67;;
1959;SDS011;980;43.794;11.212;2024-03-25T07:49:23;11.00;;;9.67;;
1959;SDS011;980;43.794;11.212;2024-03-25T07:51:48;17.33;;;17.33;;
1959;SDS011;980;43.794;11.212;2024-03-25T07:54:13;19.00;;;19.00;;
1959;SDS011;980;43.794;11.212;2024-03-25T07:56:41;18.33;;;16.00;;
1959;SDS011;980;43.794;11.212;2024-03-25T07:59:06;15.67;;;14.00;;
1959;SDS011;980;43.794;11.212;2024-03-25T08:01:32;16.00;;;12.67;;
1959;SDS011;980;43.794;11.212;2024-03-25T08:03:57;12.67;;;12.67;;
1959;SDS011;980;43.794;11.212;2024-03-25T08:06:22;13.00;;;12.67;;
1959;SDS011;980;43.794;11.212;2024-03-25T08:08:47;16.00;;;14.67;;
1959;SDS011;980;43.794;11.212;2024-03-25T08:11:13;11.00;;;11.00;;
1959;SDS011;980;43.794;11.212;2024-03-25T08:13:38;16.33;;;15.67;;
1959;SDS011;980;43.794;11.212;2024-03-25T08:16:03;16.00;;;13.00;;
1959;SDS011;980;43.794;11.212;2024-03-25T08:18:28;13.00;;;13.00;;
1959;SDS011;980;43.794;11.212;2024-03-25T08:20:54;14.75;;;13.00;;
1959;SDS011;980;43.794;11.212;2024-03-25T08:23:19;17.50;;;14.25;;
1959;SDS011;980;43.794;11.212;2024-03-25T08:25:44;16.75;;;16.75;;
1959;SDS011;980;43.794;11.212;2024-03-25T08:28:09;17.50;;;16.00;;
1959;SDS011;980;43.794;11.212;2024-03-25T08:30:35;16.75;;;16.25;;
1959;SDS011;980;43.794;11.212;2024-03-25T08:33:01;14.50;;;12.25;;
1959;SDS011;980;43.794;11.212;2024-03-25T08:35:26;15.00;;;13.00;;
1959;SDS011;980;43.794;11.212;2024-03-25T08:37:51;18.00;;;15.25;;
1959;SDS011;980;43.794;11.212;2024-03-25T08:40:17;16.00;;;13.75;;
1959;SDS011;980;43.794;11.212;2024-03-25T08:42:42;13.25;;;12.00;;
1959;SDS011;980;43.794;11.212;2024-03-25T08:45:07;17.75;;;14.50;;
1959;SDS011;980;43.794;11.212;2024-03-25T08:47:33;14.25;;;14.00;;
1959;SDS011;980;43.794;11.212;2024-03-25T08:49:58;16.00;;;14.50;;
1959;SDS011;980;43.794;11.212;2024-03-25T08:52:23;17.25;;;14.25;;
1959;SDS011;980;43.794;11.212;2024-03-25T08:54:48;14.00;;;13.25;;
1959;SDS011;980;43.794;11.212;2024-03-25T08:57:13;16.00;;;13.25;;
1959;SDS011;980;43.794;11.212;2024-03-25T08:59:39;15.50;;;12.50;;
1959;SDS011;980;43.794;11.212;2024-03-25T09:02:04;15.00;;;13.25;;
1959;SDS011;980;43.794;11.212;2024-03-25T09:04:29;13.25;;;13.25;;
1959;SDS011;980;43.794;11.212;2024-03-25T09:06:54;16.00;;;13.75;;
1959;SDS011;980;43.794;11.212;2024-03-25T09:09:20;20.75;;;19.00;;
1959;SDS011;980;43.794;11.212;2024-03-25T09:12:03;15.00;;;14.25;;
1959;SDS011;980;43.794;11.212;2024-03-25T09:14:29;15.25;;;13.50;;
1959;SDS011;980;43.794;11.212;2024-03-25T09:16:54;10.75;;;10.25;;
1959;SDS011;980;43.794;11.212;2024-03-25T09:19:19;14.75;;;14.75;;
1959;SDS011;980;43.794;11.212;2024-03-25T09:21:44;9.67;;;9.67;;
1959;SDS011;980;43.794;11.212;2024-03-25T09:24:09;15.00;;;14.00;;
1959;SDS011;980;43.794;11.212;2024-03-25T09:26:35;11.33;;;9.67;;
1959;SDS011;980;43.794;11.212;2024-03-25T09:29:00;14.67;;;14.00;;
1959;SDS011;980;43.794;11.212;2024-03-25T09:31:25;13.00;;;11.00;;
1959;SDS011;980;43.794;11.212;2024-03-25T09:33:51;14.00;;;12.00;;
1959;SDS011;980;43.794;11.212;2024-03-25T09:36:16;11.00;;;11.00;;
1959;SDS011;980;43.794;11.212;2024-03-25T09:38:41;13.67;;;12.00;;
1959;SDS011;980;43.794;11.212;2024-03-25T09:41:08;12.33;;;12.00;;
1959;SDS011;980;43.794;11.212;2024-03-25T09:43:37;14.25;;;12.50;;
1959;SDS011;980;43.794;11.212;2024-03-25T09:46:07;13.00;;;13.00;;
1959;SDS011;980;43.794;11.212;2024-03-25T09:48:33;11.00;;;11.00;;
1959;SDS011;980;43.794;11.212;2024-03-25T09:50:59;12.50;;;11.50;;
1959;SDS011;980;43.794;11.212;2024-03-25T09:53:24;11.33;;;9.67;;
1959;SDS011;980;43.794;11.212;2024-03-25T09:55:49;9.33;;;9.00;;
1959;SDS011;980;43.794;11.212;2024-03-25T09:58:15;11.00;;;10.00;;
1959;SDS011;980;43.794;11.212;2024-03-25T10:00:42;8.00;;;8.00;;
1959;SDS011;980;43.794;11.212;2024-03-25T10:03:07;8.33;;;7.33;;
1959;SDS011;980;43.794;11.212;2024-03-25T10:05:33;9.00;;;9.00;;
1959;SDS011;980;43.794;11.212;2024-03-25T10:07:59;8.00;;;8.00;;
1959;SDS011;980;43.794;11.212;2024-03-25T10:10:24;9.67;;;9.67;;
1959;SDS011;980;43.794;11.212;2024-03-25T10:12:50;9.00;;;8.33;;
1959;SDS011;980;43.794;11.212;2024-03-25T10:15:16;9.00;;;7.00;;
1959;SDS011;980;43.794;11.212;2024-03-25T10:17:41;7.00;;;7.00;;
1959;SDS011;980;43.794;11.212;2024-03-25T10:20:07;7.00;;;7.00;;
1959;SDS011;980;43.794;11.212;2024-03-25T10:22:43;6.50;;;6.50;;
1959;SDS011;980;43.794;11.212;2024-03-25T10:25:27;6.50;;;6.50;;
1959;SDS011;980;43.794;11.212;2024-03-25T10:28:00;7.00;;;7.00;;
1959;SDS011;980;43.794;11.212;2024-03-25T10:30:25;27.50;;;26.00;;
1959;SDS011;980;43.794;11.212;2024-03-25T10:33:01;9.67;;;8.00;;
1959;SDS011;980;43.794;11.212;2024-03-25T10:35:26;6.50;;;6.00;;
1959;SDS011;980;43.794;11.212;2024-03-25T10:37:55;38.67;;;29.67;;
1959;SDS011;980;43.794;11.212;2024-03-25T10:40:22;7.50;;;6.50;;
1959;SDS011;980;43.794;11.212;2024-03-25T10:42:47;15.00;;;14.00;;
1959;SDS011;980;43.794;11.212;2024-03-25T10:45:13;7.00;;;7.00;;
1959;SDS011;980;43.794;11.212;2024-03-25T10:47:38;9.33;;;7.00;;
1959;SDS011;980;43.794;11.212;2024-03-25T10:50:06;10.33;;;10.33;;
1959;SDS011;980;43.794;11.212;2024-03-25T10:52:34;12.00;;;10.00;;
1959;SDS011;980;43.794;11.212;2024-03-25T10:55:01;21.00;;;20.00;;
1959;SDS011;980;43.794;11.212;2024-03-25T10:57:27;7.50;;;6.50;;
1959;SDS011;980;43.794;11.212;2024-03-25T10:59:53;8.25;;;6.25;;
1959;SDS011;980;43.794;11.212;2024-03-25T11:02:20;7.00;;;7.00;;
1959;SDS011;980;43.794;11.212;2024-03-25T11:04:46;7.00;;;7.00;;
1959;SDS011;980;43.794;11.212;2024-03-25T11:07:13;6.50;;;6.50;;
1959;SDS011;980;43.794;11.212;2024-03-25T11:09:39;6.67;;;6.67;;
1959;SDS011;980;43.794;11.212;2024-03-25T11:12:04;6.00;;;6.00;;
1959;SDS011;980;43.794;11.212;2024-03-25T11:14:29;8.00;;;7.00;;
1959;SDS011;980;43.794;11.212;2024-03-25T11:16:57;7.25;;;6.50;;
1959;SDS011;980;43.794;11.212;2024-03-25T11:19:25;8.33;;;6.00;;
1959;SDS011;980;43.794;11.212;2024-03-25T11:21:50;7.33;;;6.33;;
1959;SDS011;980;43.794;11.212;2024-03-25T11:24:25;9.00;;;7.00;;
1959;SDS011;980;43.794;11.212;2024-03-25T11:26:52;25.50;;;23.00;;
1959;SDS011;980;43.794;11.212;2024-03-25T11:29:18;13.75;;;12.00;;
1959;SDS011;980;43.794;11.212;2024-03-25T11:31:43;8.67;;;7.67;;
1959;SDS011;980;43.794;11.212;2024-03-25T11:34:09;7.67;;;7.67;;
1959;SDS011;980;43.794;11.212;2024-03-25T11:36:35;7.00;;;7.00;;
1959;SDS011;980;43.794;11.212;2024-03-25T11:39:01;7.33;;;7.33;;
1959;SDS011;980;43.794;11.212;2024-03-25T11:41:30;7.33;;;6.00;;
1959;SDS011;980;43.794;11.212;2024-03-25T11:43:56;4.67;;;4.67;;
1959;SDS011;980;43.794;11.212;2024-03-25T11:46:24;6.00;;;5.00;;
1959;SDS011;980;43.794;11.212;2024-03-25T11:48:49;7.25;;;7.25;;
1959;SDS011;980;43.794;11.212;2024-03-25T11:51:19;5.00;;;5.00;;
1959;SDS011;980;43.794;11.212;2024-03-25T11:53:44;11.25;;;10.25;;
1959;SDS011;980;43.794;11.212;2024-03-25T11:56:10;6.67;;;5.33;;
1959;SDS011;980;43.794;11.212;2024-03-25T11:58:36;7.00;;;7.00;;
1959;SDS011;980;43.794;11.212;2024-03-25T12:01:01;6.00;;;4.33;;
1959;SDS011;980;43.794;11.212;2024-03-25T12:03:26;7.50;;;6.25;;
1959;SDS011;980;43.794;11.212;2024-03-25T12:05:52;6.50;;;5.25;;
1959;SDS011;980;43.794;11.212;2024-03-25T12:08:17;5.25;;;4.25;;
1959;SDS011;980;43.794;11.212;2024-03-25T12:10:42;5.50;;;5.50;;
1959;SDS011;980;43.794;11.212;2024-03-25T12:13:26;8.00;;;4.50;;
1959;SDS011;980;43.794;11.212;2024-03-25T12:15:53;8.25;;;6.00;;
1959;SDS011;980;43.794;11.212;2024-03-25T12:18:18;7.50;;;5.00;;
1959;SDS011;980;43.794;11.212;2024-03-25T12:20:46;6.25;;;5.75;;
1959;SDS011;980;43.794;11.212;2024-03-25T12:23:11;6.00;;;6.00;;
1959;SDS011;980;43.794;11.212;2024-03-25T12:25:37;8.75;;;5.75;;
1959;SDS011;980;43.794;11.212;2024-03-25T12:28:07;7.75;;;5.00;;
1959;SDS011;980;43.794;11.212;2024-03-25T12:30:32;6.75;;;6.00;;
1959;SDS011;980;43.794;11.212;2024-03-25T12:32:58;5.25;;;5.25;;
1959;SDS011;980;43.794;11.212;2024-03-25T12:35:23;6.00;;;5.25;;
1959;SDS011;980;43.794;11.212;2024-03-25T12:37:48;5.25;;;3.75;;
1959;SDS011;980;43.794;11.212;2024-03-25T12:40:27;8.25;;;4.50;;
1959;SDS011;980;43.794;11.212;2024-03-25T12:42:53;5.00;;;5.00;;
1959;SDS011;980;43.794;11.212;2024-03-25T12:45:19;6.75;;;6.75;;
1959;SDS011;980;43.794;11.212;2024-03-25T12:47:44;4.50;;;4.50;;
1959;SDS011;980;43.794;11.212;2024-03-25T12:50:10;6.00;;;5.50;;
1959;SDS011;980;43.794;11.212;2024-03-25T12:52:35;5.75;;;5.50;;
1959;SDS011;980;43.794;11.212;2024-03-25T12:55:01;5.50;;;5.00;;
1959;SDS011;980;43.794;11.212;2024-03-25T12:57:26;4.75;;;4.75;;
1959;SDS011;980;43.794;11.212;2024-03-25T12:59:51;4.25;;;4.25;;
1959;SDS011;980;43.794;11.212;2024-03-25T13:02:17;5.00;;;5.00;;
1959;SDS011;980;43.794;11.212;2024-03-25T13:04:44;8.25;;;6.25;;
1959;SDS011;980;43.794;11.212;2024-03-25T13:07:09;5.25;;;4.75;;
1959;SDS011;980;43.794;11.212;2024-03-25T13:09:35;8.25;;;5.75;;
1959;SDS011;980;43.794;11.212;2024-03-25T13:12:00;4.25;;;4.25;;
1959;SDS011;980;43.794;11.212;2024-03-25T13:14:26;4.50;;;4.50;;
1959;SDS011;980;43.794;11.212;2024-03-25T13:16:51;5.00;;;2.00;;
1959;SDS011;980;43.794;11.212;2024-03-25T13:19:17;4.00;;;4.00;;
1959;SDS011;980;43.794;11.212;2024-03-25T13:21:42;4.00;;;4.00;;
1959;SDS011;980;43.794;11.212;2024-03-25T13:24:08;4.00;;;4.00;;
1959;SDS011;980;43.794;11.212;2024-03-25T13:26:33;2.00;;;2.00;;
1959;SDS011;980;43.794;11.212;2024-03-25T13:28:58;4.00;;;4.00;;
1959;SDS011;980;43.794;11.212;2024-03-25T13:31:24;5.25;;;4.00;;
1959;SDS011;980;43.794;11.212;2024-03-25T13:33:50;3.75;;;3.75;;
1959;SDS011;980;43.794;11.212;2024-03-25T13:36:16;4.50;;;4.50;;
1959;SDS011;980;43.794;11.212;2024-03-25T13:38:41;5.00;;;5.00;;
1959;SDS011;980;43.794;11.212;2024-03-25T13:41:07;4.50;;;4.00;;
1959;SDS011;980;43.794;11.212;2024-03-25T13:43:33;5.00;;;4.25;;
1959;SDS011;980;43.794;11.212;2024-03-25T13:45:58;6.00;;;5.00;;
1959;SDS011;980;43.794;11.212;2024-03-25T13:48:23;4.75;;;4.75;;
1959;SDS011;980;43.794;11.212;2024-03-25T13:50:49;4.25;;;3.50;;
1959;SDS011;980;43.794;11.212;2024-03-25T13:53:14;8.00;;;6.00;;
1959;SDS011;980;43.794;11.212;2024-03-25T13:55:39;6.75;;;5.25;;
1959;SDS011;980;43.794;11.212;2024-03-25T13:58:05;4.25;;;4.25;;
1959;SDS011;980;43.794;11.212;2024-03-25T14:00:30;5.25;;;5.25;;
1959;SDS011;980;43.794;11.212;2024-03-25T14:02:56;6.00;;;4.75;;
1959;SDS011;980;43.794;11.212;2024-03-25T14:05:22;6.25;;;5.00;;
1959;SDS011;980;43.794;11.212;2024-03-25T14:07:48;6.00;;;5.00;;
1959;SDS011;980;43.794;11.212;2024-03-25T14:10:14;3.00;;;3.00;;
1959;SDS011;980;43.794;11.212;2024-03-25T14:12:40;6.50;;;5.75;;
1959;SDS011;980;43.794;11.212;2024-03-25T14:15:05;5.00;;;5.00;;
1959;SDS011;980;43.794;11.212;2024-03-25T14:17:31;5.25;;;5.00;;
1959;SDS011;980;43.794;11.212;2024-03-25T14:19:57;1.25;;;1.25;;
1959;SDS011;980;43.794;11.212;2024-03-25T14:22:22;1.25;;;1.25;;
1959;SDS011;980;43.794;11.212;2024-03-25T14:24:47;4.00;;;3.00;;
1959;SDS011;980;43.794;11.212;2024-03-25T14:27:13;5.00;;;1.00;;
1959;SDS011;980;43.794;11.212;2024-03-25T14:29:38;2.50;;;2.25;;
1959;SDS011;980;43.794;11.212;2024-03-25T14:32:03;3.75;;;3.75;;
1959;SDS011;980;43.794;11.212;2024-03-25T14:34:29;3.00;;;1.75;;
1959;SDS011;980;43.794;11.212;2024-03-25T14:36:54;2.50;;;2.50;;
1959;SDS011;980;43.794;11.212;2024-03-25T14:39:21;4.00;;;3.00;;
1959;SDS011;980;43.794;11.212;2024-03-25T14:41:47;4.50;;;3.25;;
1959;SDS011;980;43.794;11.212;2024-03-25T14:44:12;2.50;;;2.50;;
1959;SDS011;980;43.794;11.212;2024-03-25T14:46:37;2.00;;;2.00;;
1959;SDS011;980;43.794;11.212;2024-03-25T14:49:02;3.50;;;3.00;;
1959;SDS011;980;43.794;11.212;2024-03-25T14:51:28;5.25;;;3.00;;
1959;SDS011;980;43.794;11.212;2024-03-25T14:53:53;2.50;;;1.00;;
1959;SDS011;980;43.794;11.212;2024-03-25T14:56:18;6.00;;;3.00;;
1959;SDS011;980;43.794;11.212;2024-03-25T14:58:43;4.00;;;3.00;;